Notice: Undefined index: language in D:\xampp\htdocs\vam\index.php on line 25
Open Air Virtual

 METAR AND TAF INFORMATION
METAR FOR LEBB
ADDS - METARS form results

(2320 UTC 17 October 2019)
Data provider http://aviationweather.gov/metar/data/
 
METAR text: LEBB 172300Z AUTO VRB02KT 9999 BKN027 17/15 Q1014
Conditions at: LEBB (BILBAO/SONDICA , ES) observed 2300 UTC 17 October 2019
Temperature: 17.0°C (63°F)
Dewpoint: 15.0°C (59°F) [RH = 88%]
Pressure (altimeter): 29.94 inches Hg (1014.0 mb)
Winds: variable direction winds at 2 MPH (2 knots; 1.0 m/s)
Visibility: 6 or more miles (10+ km)
Ceiling: 2700 feet AGL
Clouds: broken clouds at 2700 feet AGL
Weather: no significant weather observed at this time

METAR text: LEBB 172230Z AUTO 26001KT 9999 BKN026 17/15 Q1015
Conditions at: LEBB (BILBAO/SONDICA , ES) observed 2230 UTC 17 October 2019
Temperature: 17.0°C (63°F)
Dewpoint: 15.0°C (59°F) [RH = 88%]
Pressure (altimeter): 29.97 inches Hg (1015.0 mb)
Winds: from the W (260 degrees) at 1 MPH (1 knots; 0.5 m/s)
Visibility: 6 or more miles (10+ km)
Ceiling: 2600 feet AGL
Clouds: broken clouds at 2600 feet AGL
Weather: no significant weather observed at this time

Forecast for: LEBB (BILBAO/SONDICA , ES)
Text: TAF LEBB 171700Z 1718/1818 VRB05KT 9999 SCT018 BKN025 TX20/1813Z TN14/1806Z
Forecast period: 1800 UTC 17 October 2019 to 1800 UTC 18 October 2019
Forecast type: FROM: standard forecast or significant change
Winds: variable direction winds at 6 MPH (5 knots; 2.6 m/s)
Visibility: 6 or more miles 10+ km)
Ceiling: 2500 feet AGL
Clouds: scattered clouds at 1800 feet AGL
broken clouds at 2500 feet AGL
Weather: no significant weather forecast for this period
Text: PROB30
Forecast period: 1800 UTC 17 October 2019 to 0600 UTC 18 October 2019
Forecast type: TEMPORARY: The following changes expected for less than half the time period
Visibility: 1.86 miles (2.99 km)
Ceiling: 1000 feet AGL
Clouds: broken clouds at 1000 feet AGL
Weather: RA DZ  (moderate rain, moderate drizzle)

 AIRPORT MAP

 RUNWAY INFORMATION
Runway 10 Runway length 6562 ft Runway width 148 ft
Runway elevation 116 ft Runway displaced threshold 0 ft Runway heading 97
Runway 28 Runway length 6562 ft Runway width 148 ft
Runway elevation 129 ft Runway displaced threshold 0 ft Runway heading 277
Runway 12 Runway length 8530 ft Runway width 148 ft
Runway elevation 119 ft Runway displaced threshold 0 ft Runway heading 117
Runway 30 Runway length 8530 ft Runway width 148 ft
Runway elevation 128 ft Runway displaced threshold 1509 ft Runway heading 297

 AIRPORT FREQUENCIES
Type APP Name APP Frequency 120.7 MHZ
Type ATIS Name ATIS Frequency 118.825 MHZ
Type GND Name GND Frequency 121.7 MHZ
Type TWR Name TWR Frequency 118.5 MHZ

 AIRPORT NEAR NAVIGATION AIDS
Type VOR-DME Name Bilbao Frequency 115900 KHZ



Powered by Virtual Airlines Manager [v2.6.2]